createdAt,value
2023-04-16T00:04:15.316Z,58.61
2023-04-16T00:36:37.187Z,58.81
2023-04-16T00:39:11.065Z,58.71
2023-04-16T00:41:45.105Z,58.24
2023-04-16T00:44:23.815Z,58.90
2023-04-16T00:50:40.909Z,58.45
2023-04-16T00:53:17.565Z,58.76
2023-04-16T00:55:50.949Z,59.13
2023-04-16T00:58:26.119Z,58.64
2023-04-16T01:00:58.605Z,58.59
2023-04-16T01:03:43.932Z,58.69
2023-04-16T01:06:19.529Z,58.58
2023-04-16T01:08:54.269Z,58.63
2023-04-16T01:25:15.997Z,58.63
2023-04-16T01:27:57.625Z,59.06
2023-04-16T01:30:32.678Z,58.65
2023-04-16T01:33:32.395Z,58.77
2023-04-16T01:36:07.936Z,58.65
2023-04-16T01:38:40.588Z,59.40
2023-04-16T01:41:15.624Z,59.20
2023-04-16T01:43:48.395Z,58.70
2023-04-16T01:46:27.401Z,59.36
2023-04-16T01:49:01.867Z,59.06
2023-04-16T01:51:35.963Z,59.47
2023-04-16T01:54:09.630Z,59.31
2023-04-16T01:56:42.236Z,58.72
2023-04-16T01:59:21.991Z,59.36
2023-04-16T02:01:54.737Z,58.67
2023-04-16T02:04:27.682Z,59.22
2023-04-16T02:07:03.019Z,59.35
2023-04-16T02:09:38.553Z,59.05
2023-04-16T02:12:12.556Z,58.85
2023-04-16T02:14:46.453Z,58.79
2023-04-16T02:29:43.176Z,58.73
2023-04-16T02:32:20.832Z,58.76
2023-04-16T02:34:53.390Z,58.90
2023-04-16T02:37:28.902Z,59.02
2023-04-16T02:40:04.008Z,59.08
2023-04-16T02:42:37.693Z,59.44
2023-04-16T02:45:11.800Z,59.17
2023-04-16T02:47:46.147Z,59.12
2023-04-16T02:50:19.257Z,59.44
2023-04-16T02:52:51.827Z,59.44
2023-04-16T02:55:24.650Z,59.04
2023-04-16T02:57:57.047Z,59.75
2023-04-16T03:00:29.415Z,59.21
2023-04-16T03:03:01.999Z,59.11
2023-04-16T03:05:34.928Z,59.50
2023-04-16T03:08:08.981Z,59.42
2023-04-16T03:10:43.352Z,59.49
2023-04-16T03:13:16.064Z,59.23
2023-04-16T03:15:50.983Z,59.37
2023-04-16T03:18:23.543Z,59.34
2023-04-16T03:20:56.073Z,59.25
2023-04-16T03:23:28.554Z,59.09
2023-04-16T03:26:01.482Z,59.50
2023-04-16T03:28:35.930Z,59.01
2023-04-16T03:31:09.414Z,59.25
2023-04-16T03:33:46.377Z,59.07
2023-04-16T03:36:21.364Z,59.09
2023-04-16T03:38:54.844Z,59.10
2023-04-16T03:41:30.762Z,59.11
2023-04-16T03:44:04.497Z,59.52
2023-04-16T03:46:38.596Z,59.18
2023-04-16T03:49:11.911Z,59.12
2023-04-16T03:51:44.415Z,59.44
2023-04-16T03:54:35.627Z,59.18
2023-04-16T04:06:07.655Z,59.07
2023-04-16T04:08:44.262Z,59.16
2023-04-16T04:11:21.891Z,58.92
2023-04-16T04:13:58.628Z,59.43
2023-04-16T04:37:46.643Z,59.54
2023-04-16T04:40:24.343Z,59.35
2023-04-16T04:42:58.303Z,59.41
2023-04-16T04:45:31.955Z,58.94
2023-04-16T04:48:08.419Z,59.12
2023-04-16T04:50:43.129Z,59.66
2023-04-16T04:53:18.224Z,59.91
2023-04-16T04:55:55.661Z,59.20
2023-04-16T04:58:31.907Z,59.73
2023-04-16T05:01:04.945Z,59.24
2023-04-16T05:03:42.039Z,59.32
2023-04-16T05:06:16.942Z,59.70
2023-04-16T05:08:49.504Z,59.29
2023-04-16T05:11:21.935Z,59.77
2023-04-16T05:13:54.809Z,59.50
2023-04-16T05:16:27.456Z,59.83
2023-04-16T05:19:02.387Z,59.22
2023-04-16T05:21:37.209Z,59.34
2023-04-16T05:32:17.504Z,59.90
2023-04-16T05:51:27.268Z,59.42
2023-04-16T06:05:29.476Z,59.36
2023-04-16T06:08:04.875Z,59.47
2023-04-16T06:10:39.919Z,59.63
2023-04-16T06:13:13.365Z,59.80
2023-04-16T06:15:48.743Z,59.76
2023-04-16T06:26:07.147Z,59.99
2023-04-16T06:28:39.667Z,59.94
2023-04-16T06:31:12.167Z,59.82
2023-04-16T06:33:46.075Z,59.52
2023-04-16T06:36:19.791Z,59.34
2023-04-16T06:38:53.324Z,59.50
2023-04-16T06:41:26.839Z,59.32
2023-04-16T06:43:59.238Z,59.36
2023-04-16T06:46:33.044Z,59.95
2023-04-16T06:49:05.843Z,59.37
2023-04-16T07:03:46.905Z,59.42
2023-04-16T07:06:19.586Z,59.77
2023-04-16T07:08:54.376Z,59.28
2023-04-16T07:11:27.248Z,59.47
2023-04-16T07:13:59.720Z,59.70
2023-04-16T07:16:34.503Z,59.57
2023-04-16T07:19:08.821Z,59.26
2023-04-16T07:26:27.425Z,59.31
2023-04-16T07:29:01.019Z,59.10
2023-04-16T07:31:41.932Z,59.01
2023-04-16T07:34:17.477Z,59.25
2023-04-16T07:36:49.790Z,59.40
2023-04-16T07:39:22.433Z,59.35
2023-04-16T07:41:55.050Z,59.12
2023-04-16T07:44:29.934Z,59.38
2023-04-16T07:47:05.810Z,58.94
2023-04-16T08:16:54.810Z,59.29
2023-04-16T08:19:27.334Z,59.52
2023-04-16T08:22:02.234Z,59.21
2023-04-16T08:24:48.112Z,58.93
2023-04-16T08:39:44.387Z,58.88
2023-04-16T08:42:29.463Z,59.11
2023-04-16T08:45:13.842Z,59.42
2023-04-16T09:03:57.534Z,58.73
2023-04-16T09:06:30.153Z,59.01
2023-04-16T09:09:19.317Z,59.42
2023-04-16T09:25:34.261Z,59.81
2023-04-16T09:48:46.616Z,59.86
2023-04-16T09:51:21.502Z,59.78
2023-04-16T09:53:57.128Z,59.79
2023-04-16T09:56:32.373Z,60.36
2023-04-16T09:59:04.982Z,60.18
2023-04-16T10:01:40.719Z,60.39
2023-04-16T10:04:13.503Z,60.45
2023-04-16T10:07:06.825Z,60.60
2023-04-16T10:09:40.964Z,59.78
2023-04-16T11:17:44.919Z,60.23
2023-04-16T11:20:26.288Z,60.25
2023-04-16T11:22:59.371Z,60.47
2023-04-16T11:25:34.248Z,60.09
2023-04-16T11:28:09.211Z,60.19
2023-04-16T11:30:41.853Z,59.93
2023-04-16T11:33:14.507Z,60.41
2023-04-16T11:35:57.714Z,60.02
2023-04-16T20:34:00.968Z,57.98
2023-04-16T20:36:33.462Z,58.96
2023-04-16T20:39:08.331Z,58.44
2023-04-16T20:41:44.802Z,58.79
2023-04-16T20:44:18.852Z,58.43
2023-04-16T20:46:55.547Z,58.69
2023-04-16T20:49:30.294Z,58.45
2023-04-16T20:52:03.084Z,58.65
2023-04-16T20:54:38.355Z,58.20
2023-04-16T20:57:10.823Z,59.04
2023-04-16T20:59:43.093Z,58.77
2023-04-16T21:02:15.538Z,58.65
2023-04-16T21:04:48.147Z,58.42
2023-04-16T21:07:21.004Z,58.85
2023-04-16T21:09:53.574Z,58.79
2023-04-16T21:12:26.184Z,58.94
2023-04-16T21:14:59.867Z,58.99
2023-04-16T21:17:32.757Z,58.51
2023-04-16T21:20:07.120Z,59.01
2023-04-16T21:22:39.454Z,58.78
2023-04-16T21:25:13.132Z,59.27
2023-04-16T21:27:46.835Z,58.71
2023-04-16T21:30:19.616Z,58.48
2023-04-16T21:32:53.756Z,58.64
2023-04-16T21:35:26.974Z,59.08
2023-04-16T21:38:01.601Z,58.75
2023-04-16T21:40:34.020Z,58.72
2023-04-16T21:43:06.800Z,59.14
2023-04-16T21:45:39.785Z,58.09
2023-04-16T21:48:12.705Z,58.83
2023-04-16T21:50:45.034Z,58.67
2023-04-16T21:53:17.421Z,58.82
2023-04-16T21:55:51.325Z,59.23
2023-04-16T21:58:25.905Z,59.20
2023-04-16T22:00:58.310Z,58.81
2023-04-16T22:03:31.316Z,58.64
2023-04-16T22:06:05.321Z,58.84
2023-04-16T22:08:37.966Z,59.34
2023-04-16T22:11:10.268Z,58.84
2023-04-16T22:13:43.348Z,59.02
2023-04-16T22:16:15.867Z,58.59
2023-04-16T22:18:48.210Z,59.09
2023-04-16T22:21:20.832Z,59.18
2023-04-16T22:23:53.399Z,59.25
2023-04-16T22:26:27.950Z,58.89
2023-04-16T22:29:03.217Z,59.08
2023-04-16T22:31:36.459Z,59.30
2023-04-16T22:34:08.895Z,59.44
2023-04-16T22:36:41.810Z,59.33
2023-04-16T22:39:19.685Z,59.67
2023-04-16T22:41:52.040Z,59.41
2023-04-16T22:44:24.423Z,59.26
2023-04-16T22:46:56.884Z,59.33
2023-04-16T22:49:35.318Z,59.03
2023-04-16T22:52:09.881Z,59.17
2023-04-16T22:54:42.135Z,59.32
2023-04-16T22:57:17.441Z,59.17
2023-04-16T22:59:50.783Z,58.95
2023-04-16T23:02:23.094Z,58.74
2023-04-16T23:04:55.406Z,59.28
2023-04-16T23:07:27.795Z,59.17
2023-04-16T23:10:00.240Z,59.24
2023-04-16T23:12:32.622Z,59.05
2023-04-16T23:15:06.910Z,59.08
2023-04-16T23:17:39.803Z,59.38
2023-04-16T23:20:13.369Z,59.75
2023-04-16T23:22:46.634Z,59.25
2023-04-16T23:25:19.134Z,59.17
2023-04-16T23:27:51.447Z,59.17
2023-04-16T23:30:24.741Z,59.07
2023-04-16T23:32:57.131Z,59.46
2023-04-16T23:35:30.611Z,58.48
2023-04-16T23:38:03.439Z,59.35
2023-04-16T23:40:35.807Z,59.72
2023-04-16T23:43:10.661Z,59.11
2023-04-16T23:45:43.117Z,59.26
2023-04-16T23:48:16.271Z,58.94
2023-04-16T23:50:49.027Z,59.16
2023-04-16T23:53:21.460Z,58.92
2023-04-16T23:55:54.662Z,58.55
2023-04-16T23:58:29.706Z,58.57
